Latest Weather Observations for Kalumburu

IDW60801

Issued at 7:03 pm WST Thursday 23 November 2017 (issued every 30 minutes, with the page automatically refreshed every 10 minutes)

About weather observations | Map of weather stations | Latest weather observations for WA | Other Formats
Station Details ID: 001019 Name: KALUMBURU Lat: -14.30 Lon: 126.65 Height: 23.0 m
Data from the previous 72 hours. | See also: Recent months at Kalumburu
Date/Time
WST
Temp
°C
App
Temp
°C
Dew
Point
°C
Rel
Hum
%
Delta-T
°C
Wind Press
QNH
hPa
Press
MSL
hPa
Rain since
9am
mm
Dir  Spd
km/h
Gust
km/h
Spd
kts
Gust
kts
23/07:00pm 26.6 28.3 20.9 71 3.8 N 13 20 7 11 1006.2 1006.0 0.8
23/06:30pm 25.5 27.0 21.2 77 2.8 E 15 28 8 15 1006.9 1006.7 0.8
23/06:00pm 25.2 27.6 21.5 80 2.5 WNW 11 22 6 12 1005.0 1004.8 0.8
23/05:30pm 24.8 24.5 19.6 73 3.4 ESE 20 35 11 19 1004.6 1004.4 0.2
23/05:06pm 28.0 25.4 17.8 54 6.5 E 28 54 15 29 1003.6 1003.4 0.0
23/05:00pm 29.5 27.5 17.3 47 7.7 E 24 41 13 22 1004.2 1004.0 0.0
23/04:56pm 30.1 27.9 16.9 45 8.3 ENE 24 41 13 22 1003.8 1003.6 0.0
23/04:30pm 33.4 35.1 23.4 55 6.9 N 20 32 11 17 1001.8 1001.6 0.0
23/04:00pm 34.3 35.6 23.3 52 7.7 N 22 30 12 16 1001.7 1001.5 0.0
23/03:30pm 35.3 37.1 22.6 47 8.8 N 17 26 9 14 1001.6 1001.4 0.0
23/03:00pm 35.7 37.4 23.0 48 8.8 N 19 26 10 14 1001.8 1001.6 0.0
23/02:30pm 35.9 37.7 22.5 46 9.3 NNW 17 24 9 13 1002.0 1001.8 0.0
23/02:00pm 36.1 38.7 22.6 45 9.4 NNW 13 20 7 11 1002.3 1002.1 0.0
23/01:30pm 36.2 38.3 22.4 45 9.5 NNW 15 20 8 11 1002.7 1002.5 0.0
23/01:00pm 36.2 38.1 22.0 43 9.8 NW 15 22 8 12 1003.2 1003.0 0.0
23/12:30pm 36.6 39.6 22.0 43 10.0 NW 9 17 5 9 1003.8 1003.6 0.0
23/12:00pm 35.5 38.2 21.4 44 9.6 NW 9 15 5 8 1004.4 1004.2 0.0
23/11:30am 35.3 38.5 21.2 44 9.6 SSW 6 11 3 6 1004.8 1004.6 0.0
23/11:00am 35.8 37.9 20.9 42 10.1 W 11 30 6 16 1005.2 1005.0 0.0
23/10:30am 35.5 39.1 23.1 48 8.6 W 9 17 5 9 1005.8 1005.6 0.0
23/10:00am 34.2 37.2 21.9 48 8.4 NW 9 17 5 9 1006.2 1006.0 0.0
23/09:30am 33.8 37.3 22.2 50 7.9 SSW 7 13 4 7 1006.4 1006.2 0.0
23/09:00am 33.4 37.4 23.1 54 7.1 SW 7 11 4 6 1007.0 1006.8 0.0
23/08:30am 32.3 36.2 23.0 58 6.4 W 7 9 4 5 1007.2 1007.0 0.0
23/08:00am 31.8 35.9 23.3 60 5.9 W 7 13 4 7 1007.4 1007.2 0.0
23/07:30am 30.9 36.4 24.1 67 4.7 SSW 2 6 1 3 1007.2 1007.0 0.0
23/07:00am 29.9 35.5 24.3 72 3.9 SSW 2 6 1 3 1007.3 1007.1 0.0
23/06:30am 28.8 34.7 24.1 76 3.3 CALM 0 0 0 0 1007.1 1006.9 0.0
23/06:00am 27.6 32.8 24.2 82 2.4 S 4 7 2 4 1006.9 1006.7 0.0
23/05:30am 25.9 31.8 24.1 90 1.2 CALM 0 0 0 0 1006.5 1006.3 0.0
23/05:00am 25.1 30.5 23.2 89 1.3 CALM 0 0 0 0 1006.1 1005.9 0.0
23/04:30am 24.9 30.2 23.0 89 1.3 CALM 0 0 0 0 1005.7 1005.5 0.0
23/04:00am 24.8 29.6 22.9 89 1.3 E 2 7 1 4 1005.4 1005.2 0.0
23/03:30am 25.0 29.2 23.1 89 1.3 E 6 6 3 3 1005.2 1005.0 0.0
23/03:00am 24.9 30.1 22.8 88 1.4 CALM 0 0 0 0 1004.8 1004.6 0.0
23/02:30am 24.9 30.1 22.8 88 1.4 CALM 0 0 0 0 1004.4 1004.2 0.0
23/02:00am 25.2 30.4 22.9 87 1.6 CALM 0 0 0 0 1004.5 1004.3 0.0
23/01:30am 25.3 30.7 23.2 88 1.4 CALM 0 0 0 0 1004.5 1004.3 0.0
23/01:00am 25.4 30.7 23.1 87 1.6 CALM 0 0 0 0 1004.4 1004.2 0.0
23/12:30am 25.6 30.8 22.9 85 1.8 CALM 0 0 0 0 1004.7 1004.5 0.0
23/12:00am 25.9 31.1 22.8 83 2.1 CALM 0 0 0 0 1005.2 1005.0 0.0
 
Date/Time
WST
Temp
°C
App
Temp
°C
Dew
Point
°C
Rel
Hum
%
Delta-T
°C
Wind Press
QNH
hPa
Press
MSL
hPa
Rain since
9am
mm
Dir  Spd
km/h
Gust
km/h
Spd
kts
Gust
kts
22/11:30pm 26.4 30.4 22.7 80 2.5 WNW 6 7 3 4 1005.4 1005.2 0.0
22/11:00pm 26.3 31.1 22.8 81 2.4 NW 2 6 1 3 1005.9 1005.7 0.0
22/10:30pm 26.3 31.4 22.6 80 2.5 CALM 0 0 0 0 1006.1 1005.9 0.0
22/10:00pm 26.6 31.8 22.9 80 2.5 CALM 0 0 0 0 1006.3 1006.1 0.0
22/09:30pm 26.9 31.8 22.3 76 3.1 CALM 0 0 0 0 1006.3 1006.1 0.0
22/09:00pm 27.2 32.0 22.2 74 3.4 CALM 0 0 0 0 1006.3 1006.1 0.0
22/08:30pm 27.6 32.0 22.1 72 3.7 NNW 2 7 1 4 1006.3 1006.1 0.0
22/08:00pm 28.6 31.8 21.6 66 4.7 NW 7 11 4 6 1006.1 1005.9 0.0
22/07:30pm 29.3 32.0 21.3 62 5.4 NW 9 11 5 6 1006.0 1005.8 0.0
22/07:00pm 29.2 32.7 21.9 64 4.9 NNW 6 9 3 5 1005.7 1005.5 0.0
22/06:30pm 29.5 31.6 20.9 60 5.7 N 11 13 6 7 1005.1 1004.9 0.0
22/06:00pm 29.5 32.7 21.7 63 5.3 NNW 7 9 4 5 1005.0 1004.8 0.0
22/05:30pm 30.3 33.3 20.8 56 6.3 WNW 6 9 3 5 1004.5 1004.3 0.0
22/05:00pm 31.2 34.2 20.8 54 7.0 NW 6 9 3 5 1004.3 1004.1 0.0
22/04:30pm 30.7 33.2 20.3 53 6.9 NW 7 11 4 6 1003.9 1003.7 0.0
22/04:00pm 30.7 32.4 20.9 56 6.6 NW 13 17 7 9 1003.3 1003.1 0.0
22/03:30pm 30.3 32.5 21.1 58 6.2 WNW 11 17 6 9 1003.2 1003.0 0.0
22/03:00pm 30.0 32.7 21.4 60 5.8 WNW 9 15 5 8 1003.6 1003.4 0.0
22/02:30pm 29.9 32.6 21.3 60 5.8 WNW 9 15 5 8 1003.9 1003.7 0.0
22/02:00pm 29.7 32.7 21.9 63 5.3 WNW 9 15 5 8 1004.3 1004.1 0.0
22/01:30pm 30.3 32.5 21.9 60 5.7 WNW 13 20 7 11 1004.6 1004.4 0.0
22/01:00pm 30.6 32.6 22.2 61 5.7 WNW 15 22 8 12 1004.8 1004.6 0.0
22/12:30pm 31.6 33.2 22.9 60 6.0 NW 19 30 10 16 1004.8 1004.6 0.0
22/12:00pm 32.7 33.4 21.5 51 7.6 NNW 20 28 11 15 1005.0 1004.8 0.0
22/11:30am 35.7 37.7 19.2 38 10.9 ENE 7 13 4 7 1005.3 1005.1 0.0
22/11:00am 35.4 38.6 21.6 44 9.4 E 7 15 4 8 1006.3 1006.1 0.0
22/10:30am 34.8 35.9 19.6 40 10.1 SSE 13 22 7 12 1006.2 1006.0 0.0
22/10:00am 34.5 37.6 22.9 51 8.0 SSE 11 19 6 10 1006.6 1006.4 0.0
22/09:30am 33.5 36.8 23.2 54 7.1 SSE 11 20 6 11 1006.9 1006.7 0.0
22/09:00am 31.1 34.0 23.2 63 5.5 S 13 24 7 13 1007.5 1007.3 0.0
22/08:30am 32.6 37.2 24.1 61 5.9 S 7 13 4 7 1007.5 1007.3 0.0
22/08:00am 31.5 36.0 23.9 64 5.3 SW 7 11 4 6 1007.1 1006.9 0.0
22/07:30am 30.4 34.3 22.6 63 5.3 S 6 9 3 5 1006.8 1006.6 0.0
22/07:00am 30.5 34.1 22.4 62 5.5 S 7 11 4 6 1006.7 1006.5 0.0
22/06:30am 28.8 32.6 22.8 70 4.1 SSW 7 9 4 5 1006.6 1006.4 0.0
22/06:00am 27.3 31.4 22.9 77 3.0 SSW 6 7 3 4 1006.5 1006.3 0.0
22/05:30am 26.4 31.4 22.5 79 2.6 CALM 0 0 0 0 1006.3 1006.1 0.0
22/05:00am 26.7 30.3 22.1 76 3.1 S 6 7 3 4 1006.1 1005.9 0.0
22/04:30am 27.2 30.9 22.6 76 3.1 S 7 9 4 5 1005.8 1005.6 0.0
22/04:00am 27.8 31.8 22.7 74 3.5 SSW 6 7 3 4 1005.8 1005.6 0.0
22/03:30am 27.7 32.8 24.1 81 2.5 WSW 4 7 2 4 1005.4 1005.2 0.0
22/03:00am 27.8 33.9 24.4 82 2.4 CALM 0 0 0 0 1005.1 1004.9 0.0
22/02:30am 28.4 33.6 24.2 78 2.9 WNW 4 7 2 4 1004.8 1004.6 0.0
22/02:00am 28.8 33.6 24.4 77 3.1 NW 7 11 4 6 1005.0 1004.8 0.0
22/01:30am 28.7 33.7 24.5 78 2.9 NW 6 7 3 4 1005.2 1005.0 0.0
22/01:00am 28.3 34.6 24.7 81 2.5 CALM 0 0 0 0 1005.5 1005.3 0.0
22/12:30am 28.3 33.8 24.7 81 2.5 NNW 4 6 2 3 1005.8 1005.6 0.0
22/12:00am 28.6 34.8 24.6 79 2.8 CALM 0 0 0 0 1006.2 1006.0 0.0
 
Date/Time
WST
Temp
°C
App
Temp
°C
Dew
Point
°C
Rel
Hum
%
Delta-T
°C
Wind Press
QNH
hPa
Press
MSL
hPa
Rain since
9am
mm
Dir  Spd
km/h
Gust
km/h
Spd
kts
Gust
kts
21/11:30pm 28.9 34.0 24.7 78 2.9 NW 6 11 3 6 1006.7 1006.5 0.0
21/11:00pm 29.2 34.1 24.7 77 3.2 WNW 7 11 4 6 1006.8 1006.6 0.0
21/10:30pm 29.2 34.1 24.3 75 3.4 NW 6 9 3 5 1007.2 1007.0 0.0
21/10:00pm 29.3 34.4 24.6 76 3.3 WNW 6 7 3 4 1007.5 1007.3 0.0
21/09:30pm 29.3 35.6 24.8 77 3.2 CALM 0 0 0 0 1007.7 1007.5 0.0
21/09:00pm 29.6 34.8 24.2 73 3.8 NW 4 11 2 6 1007.4 1007.2 0.0
21/08:30pm 29.6 34.0 24.5 74 3.6 NNW 9 13 5 7 1007.0 1006.8 0.0
21/08:00pm 29.8 33.7 24.2 72 3.9 NNW 11 17 6 9 1007.1 1006.9 0.0
21/07:30pm 29.8 33.7 24.2 72 3.9 N 11 17 6 9 1006.9 1006.7 0.0
21/07:00pm 30.1 33.7 24.3 71 4.1 N 13 20 7 11 1006.7 1006.5 0.0
21/06:30pm 30.1 33.8 24.5 72 3.9 N 13 19 7 10 1005.8 1005.6 0.0
21/06:00pm 30.3 33.3 24.0 69 4.4 N 15 20 8 11 1005.5 1005.3 0.0
21/05:30pm 30.6 33.4 24.3 69 4.4 N 17 24 9 13 1005.3 1005.1 0.0
21/05:00pm 31.0 33.6 23.9 66 4.9 N 17 26 9 14 1004.5 1004.3 0.0
21/04:30pm 31.9 34.5 24.0 63 5.5 N 17 22 9 12 1004.4 1004.2 0.0
21/04:00pm 32.8 35.0 22.6 55 7.0 NNW 15 22 8 12 1004.2 1004.0 0.0
21/03:30pm 33.3 34.9 22.1 52 7.6 NNW 17 24 9 13 1003.9 1003.7 0.0
21/03:00pm 34.2 35.7 21.3 47 8.8 NW 15 24 8 13 1003.6 1003.4 0.0
21/02:30pm 36.1 36.5 17.3 33 12.1 NNW 11 17 6 9 1003.9 1003.7 0.0
21/02:00pm 36.5 36.5 17.1 31 12.5 N 13 20 7 11 1004.1 1003.9 0.0
21/01:30pm 36.4 35.7 15.5 29 13.2 N 13 20 7 11 1004.4 1004.2 0.0
21/01:00pm 35.9 36.6 17.1 32 12.1 NNW 9 17 5 9 1004.8 1004.6 0.0
21/12:30pm 35.8 36.5 17.0 32 12.1 NNW 9 15 5 8 1005.6 1005.4 0.0
21/12:00pm 35.3 37.1 18.8 37 10.9 NNE 7 11 4 6 1006.1 1005.9 0.0
21/11:30am 34.4 37.1 20.7 44 9.2 S 7 11 4 6 1006.8 1006.6 0.0
21/11:00am 33.6 36.3 20.7 46 8.7 SW 7 13 4 7 1007.5 1007.3 0.0
21/10:30am 32.8 36.0 21.6 51 7.6 SSW 7 11 4 6 1007.9 1007.7 0.0
21/10:00am 31.8 35.1 22.5 58 6.4 S 9 13 5 7 1008.6 1008.4 0.0
21/09:30am 31.5 35.2 23.3 61 5.7 S 9 13 5 7 1008.9 1008.7 0.0
21/09:00am 30.9 34.6 23.3 64 5.2 S 9 15 5 8 1009.3 1009.1 0.0
21/08:30am 30.2 33.3 22.9 65 5.0 S 11 19 6 10 1009.7 1009.5 0.0
21/08:00am 29.7 33.1 23.4 69 4.3 S 11 17 6 9 1009.8 1009.6 0.0
21/07:30am 29.1 33.8 24.0 74 3.5 SE 6 11 3 6 1009.8 1009.6 0.0
21/07:00am 28.2 32.2 23.8 77 3.0 SSE 9 13 5 7 1009.8 1009.6 0.0
21/06:30am 27.8 32.0 23.4 77 3.0 SSE 7 13 4 7 1009.2 1009.0 0.0
21/06:00am 27.3 31.5 23.1 78 2.9 SSE 6 9 3 5 1008.8 1008.6 0.0
21/05:30am 26.7 30.9 23.2 81 2.4 SSE 6 11 3 6 1008.2 1008.0 0.0
21/05:00am 26.3 30.4 23.0 82 2.2 SSE 6 7 3 4 1007.6 1007.4 0.0
21/04:30am 26.2 30.3 22.9 82 2.2 SSE 6 9 3 5 1007.5 1007.3 0.0
21/04:00am 26.3 30.1 22.8 81 2.4 SSE 7 13 4 7 1007.3 1007.1 0.0
21/03:30am 26.5 30.4 23.0 81 2.4 S 7 15 4 8 1007.2 1007.0 0.0
21/03:00am 26.5 30.2 23.2 82 2.3 S 9 15 5 8 1007.1 1006.9 0.0
21/02:30am 26.0 30.2 23.1 84 2.0 SSE 6 9 3 5 1006.8 1006.6 0.0
21/02:00am 26.1 31.3 22.8 82 2.2 CALM 0 0 0 0 1006.6 1006.4 0.0
21/01:30am 26.6 31.9 23.1 81 2.4 CALM 0 2 0 1 1006.8 1006.6 0.0
21/01:00am 26.8 30.8 22.8 79 2.7 SSE 6 9 3 5 1007.2 1007.0 0.0
21/12:30am 27.2 31.3 23.0 78 2.9 S 6 9 3 5 1007.4 1007.2 0.0
21/12:00am 27.5 31.8 23.3 78 2.9 SSE 6 7 3 4 1007.8 1007.6 0.0
 
Date/Time
WST
Temp
°C
App
Temp
°C
Dew
Point
°C
Rel
Hum
%
Delta-T
°C
Wind Press
QNH
hPa
Press
MSL
hPa
Rain since
9am
mm
Dir  Spd
km/h
Gust
km/h
Spd
kts
Gust
kts
20/11:30pm 27.9 32.3 23.5 77 3.0 SSE 6 9 3 5 1008.3 1008.1 0.0
20/11:00pm 28.8 33.7 24.4 77 3.1 WNW 6 9 3 5 1008.7 1008.5 0.0
20/10:30pm 29.1 33.9 24.2 75 3.4 WNW 6 9 3 5 1008.9 1008.7 0.0
20/10:00pm 29.5 34.3 24.4 74 3.6 WNW 7 13 4 7 1009.4 1009.2 0.0
20/09:30pm 29.7 34.4 24.3 73 3.8 WNW 7 11 4 6 1009.4 1009.2 0.0
20/09:00pm 29.8 34.2 24.4 73 3.8 NW 9 13 5 7 1009.2 1009.0 0.0
20/08:30pm 29.9 34.1 24.1 71 4.0 NW 9 13 5 7 1009.1 1008.9 0.0
20/08:00pm 30.0 33.9 24.2 71 4.0 NW 11 15 6 8 1009.2 1009.0 0.0
20/07:30pm 30.1 33.9 24.0 70 4.2 NW 11 17 6 9 1009.2 1009.0 0.0

Other Formats:

Comma delimited format used in spreadsheet applications
http://www.bom.gov.au/fwo/IDW60801/IDW60801.94100.axf

JavaScript Object Notation format (JSON) in row-major order
http://www.bom.gov.au/fwo/IDW60801/IDW60801.94100.json